Rouen Vallée de Seine Airport

LFOP · Seine-Maritime, Normandy, 法国

使用的METAR站距离机场70 km。
罗盘
风向 的 风向 200° Rouen Airport 5/23
风: 18 kt, 5 beaufort

17 kt

6 kt
改变
0 ft 1.000 2.000 3.000 4.000 5.000
Cloud Cloud Cloud Cloud Cloud Cloud
BKN 1.700
METAR LFPT 011130Z AUTO 20018KT 9999 BKN017 09/06 Q0999

METAR Rouen Airport - LFOP/URO

Rouen Airport是,法国中的中型机场。 该机场位于纬度49,38525和经度1,17620。 该机场有一条跑道: 5/23. 本场的ICAO机场代码为LFOP。 该机场的IATA代码为URO。 机场在Paris FIR中。

该航空气象观测是针对Aérodrome de Pontoise - Cormeilles en Vexin在2024年3月1日 12:30, 当地时间进行的。

机场观察

风向为200°,速度为18 kt。

可见度为10 km 或者更多。

有碎云在1.700 ft的高度。 破损或更高的上限为1.700 ft。

温度为9 °C,阵风为3 °C。 露点为6 °C,相对湿度为82%。 海平面上的气压为999 hPa (QNH)。

白天

今天,太阳从07:36升起,在18:38降落。 这适用于Rouen Airport,世界夏令时可能有所不同。 当地时间与世界标准时间之间的时差为+1 小时。 当前,没有夏令时有效。

公司介绍

在这个机场,你可以找到飞行俱乐部。 本场上唯一已知的公司是Aéro-Club de Rouen Normandie。

体会

到Vliegles.nl去找飞行课程,跳伞和其他飞行体验。 浏览页面,了解Rouen Airport附近所有可用的活动。 你也可以使用搜索功能来寻找你所在地附近的特定飞行课程、跳伞或其他飞行体验。

跑道

Id 标题 侧风 逆风 侧风 %
5/23 041°-221° 6 kt 17 kt 36 %

逆风成分最大的方向会被突出显示,并用于横风计算。 这并不一定意味着这个方向在使用。

乌云

1.700 ft BKN 碎云

温度 & 天气

温度 9 °C
露点 6 °C
相对湿度 82%
风寒 3 °C
Kp-index 1 (0-9)

白天

日出
07:32
中午
13:04
日落
18:35 (5:45)

小工具

你想在你的网站上有一个关于Rouen Airport的当前航空天气(METAR)的小部件吗?

显示HTML代码
?>